Batterdale, United Kingdom
Current Conditions -  °F | °C
As of 5:50 AM on Friday 31 Oct 2014 (Local Time) from EGGW Reporting Station
Moderate Fog Moderate Fog  
Wind Chill: 57°   Ceiling: 100
Heat Index: 57°   Visibility: 0.56mi
Dew Point: 57°   Wind: 7mph
Humidity: 100%   Direction: 190°S
Pressure: 30.03"   Gusts: NA
Location:  51.76°N, 0.21°W
Report Text: EGGW 310550Z 19006KT 160V220 0900 R26/P1500 FG OVC001 14/14 Q1017
Loading
Personal Weather Stations






























Interactive Weather Map New forecast layout! Learn more

10-Day Weather Forecast

Advertisements
Track Severe Weather on mobile